createdAt,value
2023-08-11T00:01:08.045Z,14.8
2023-08-11T00:02:17.218Z,14.8
2023-08-11T00:03:26.388Z,14.8
2023-08-11T00:04:35.563Z,14.8
2023-08-11T00:05:44.739Z,14.8
2023-08-11T00:06:52.917Z,14.8
2023-08-11T00:08:02.095Z,14.8
2023-08-11T00:09:11.271Z,14.8
2023-08-11T00:10:20.437Z,14.8
2023-08-11T00:11:29.634Z,14.8
2023-08-11T00:12:38.803Z,14.7
2023-08-11T00:13:47.966Z,14.7
2023-08-11T00:14:57.135Z,14.8
2023-08-11T00:16:06.321Z,14.7
2023-08-11T00:17:15.483Z,14.7
2023-08-11T00:18:24.649Z,14.7
2023-08-11T00:19:33.829Z,14.7
2023-08-11T00:20:42.988Z,14.8
2023-08-11T00:21:51.184Z,14.7
2023-08-11T00:23:00.358Z,14.7
2023-08-11T00:24:09.523Z,14.7
2023-08-11T00:25:18.699Z,14.6
2023-08-11T00:27:37.054Z,14.6
2023-08-11T00:28:46.229Z,14.6
2023-08-11T00:31:04.564Z,14.5
2023-08-11T00:32:13.737Z,14.5
2023-08-11T00:33:22.914Z,14.5
2023-08-11T00:34:32.099Z,14.4
2023-08-11T00:35:41.318Z,14.4
2023-08-11T00:36:49.441Z,14.4
2023-08-11T00:37:58.610Z,14.4
2023-08-11T00:39:07.797Z,14.3
2023-08-11T00:40:16.961Z,14.4
2023-08-11T00:41:26.132Z,14.4
2023-08-11T00:42:35.308Z,14.3
2023-08-11T00:43:44.483Z,14.3
2023-08-11T00:44:53.645Z,14.3
2023-08-11T00:46:02.825Z,14.3
2023-08-11T00:47:11.999Z,14.3
2023-08-11T00:48:21.167Z,14.3
2023-08-11T00:49:30.344Z,14.3
2023-08-11T00:50:39.511Z,14.3
2023-08-11T00:51:47.695Z,14.3
2023-08-11T00:52:56.866Z,14.3
2023-08-11T00:54:06.048Z,14.3
2023-08-11T00:55:15.213Z,14.3
2023-08-11T00:56:24.421Z,14.3
2023-08-11T00:57:33.570Z,14.2
2023-08-11T00:58:42.742Z,14.3
2023-08-11T00:59:51.908Z,14.3
2023-08-11T01:01:01.092Z,14.3
2023-08-11T01:02:10.254Z,14.2
2023-08-11T01:03:19.531Z,14.3
2023-08-11T01:04:27.628Z,14.3
2023-08-11T01:05:36.794Z,14.3
2023-08-11T01:06:44.991Z,14.3
2023-08-11T01:07:54.169Z,14.3
2023-08-11T01:10:12.514Z,14.3
2023-08-11T01:11:21.673Z,14.3
2023-08-11T01:12:30.859Z,14.2
2023-08-11T01:13:40.014Z,14.2
2023-08-11T01:14:49.196Z,14.3
2023-08-11T01:15:58.383Z,14.2
2023-08-11T01:17:07.549Z,14.2
2023-08-11T01:18:16.721Z,14.2
2023-08-11T01:19:25.900Z,14.2
2023-08-11T01:20:35.081Z,14.2
2023-08-11T01:21:43.252Z,14.2
2023-08-11T01:22:52.416Z,14.2
2023-08-11T01:24:01.594Z,14.2
2023-08-11T01:25:10.771Z,14.2
2023-08-11T01:26:19.931Z,14.2
2023-08-11T01:27:29.108Z,14.2
2023-08-11T01:28:38.285Z,14.2
2023-08-11T01:29:47.472Z,14.2
2023-08-11T01:30:56.635Z,14.2
2023-08-11T01:32:05.796Z,14.2
2023-08-11T01:33:15.058Z,14.2
2023-08-11T01:34:24.151Z,14.2
2023-08-11T01:35:32.343Z,14.2
2023-08-11T01:36:41.509Z,14.2
2023-08-11T01:37:50.694Z,14.1
2023-08-11T01:38:58.885Z,14.1
2023-08-11T01:40:07.084Z,14
2023-08-11T01:41:15.264Z,14
2023-08-11T01:42:24.437Z,14
2023-08-11T01:43:33.608Z,14.1
2023-08-11T01:44:42.783Z,14.1
2023-08-11T01:45:51.950Z,14.1
2023-08-11T01:47:01.121Z,14.1
2023-08-11T01:48:10.297Z,14.1
2023-08-11T01:49:19.476Z,14.1
2023-08-11T01:50:28.641Z,14.1
2023-08-11T01:51:37.824Z,14.1
2023-08-11T01:52:46.987Z,14.1
2023-08-11T01:53:56.166Z,14.2
2023-08-11T01:55:05.337Z,14.2
2023-08-11T01:56:13.529Z,14.1
2023-08-11T01:57:22.698Z,14.1
2023-08-11T01:58:31.866Z,14
2023-08-11T01:59:41.045Z,14.1
2023-08-11T02:00:50.220Z,14
2023-08-11T02:01:59.394Z,14.1
2023-08-11T02:03:07.587Z,14.1
2023-08-11T02:04:15.768Z,14.1
2023-08-11T02:05:24.956Z,14
2023-08-11T02:06:34.118Z,13.9
2023-08-11T02:07:43.297Z,13.9
2023-08-11T02:08:52.462Z,13.9
2023-08-11T02:10:01.636Z,13.8
2023-08-11T02:11:10.808Z,13.8
2023-08-11T02:12:20.063Z,13.8
2023-08-11T02:13:29.158Z,13.8
2023-08-11T02:14:38.330Z,13.8
2023-08-11T02:15:47.498Z,13.8
2023-08-11T02:16:56.657Z,13.8
2023-08-11T02:18:05.836Z,13.8
2023-08-11T02:19:14.020Z,13.8
2023-08-11T02:20:23.196Z,13.8
2023-08-11T02:21:32.406Z,13.8
2023-08-11T02:22:41.651Z,13.7
2023-08-11T02:23:50.709Z,13.8
2023-08-11T02:24:59.888Z,13.7
2023-08-11T02:26:08.093Z,13.7
2023-08-11T02:27:16.284Z,13.7
2023-08-11T02:28:25.452Z,13.7
2023-08-11T02:29:34.611Z,13.7
2023-08-11T02:30:43.786Z,13.7
2023-08-11T02:31:52.973Z,13.7
2023-08-11T02:33:02.139Z,13.7
2023-08-11T02:34:11.306Z,13.7
2023-08-11T02:35:20.489Z,13.7
2023-08-11T02:36:29.650Z,13.7
2023-08-11T02:37:38.818Z,13.7
2023-08-11T02:38:48.001Z,13.6
2023-08-11T02:39:57.172Z,13.7
2023-08-11T02:41:06.346Z,13.6
2023-08-11T02:42:14.535Z,13.7
2023-08-11T02:43:23.690Z,13.6
2023-08-11T02:44:32.870Z,13.6
2023-08-11T02:45:42.037Z,13.6
2023-08-11T02:46:51.221Z,13.6
2023-08-11T02:48:00.405Z,13.6
2023-08-11T02:49:09.566Z,13.6
2023-08-11T02:50:18.742Z,13.6
2023-08-11T02:51:28.029Z,13.6
2023-08-11T02:52:37.076Z,13.5
2023-08-11T02:53:46.256Z,13.5
2023-08-11T02:54:55.425Z,13.6
2023-08-11T02:56:04.599Z,13.6
2023-08-11T02:57:12.777Z,13.5
2023-08-11T02:59:31.131Z,13.6
2023-08-11T03:00:40.308Z,13.6
2023-08-11T03:01:48.532Z,13.6
2023-08-11T03:02:56.684Z,13.6
2023-08-11T03:04:04.922Z,13.5
2023-08-11T03:05:14.055Z,13.5
2023-08-11T03:06:23.234Z,13.6
2023-08-11T03:07:32.406Z,13.6
2023-08-11T03:08:41.576Z,13.5
2023-08-11T03:09:50.744Z,13.5
2023-08-11T03:10:59.923Z,13.5
2023-08-11T03:12:09.085Z,13.5
2023-08-11T03:13:18.300Z,13.5
2023-08-11T03:14:27.444Z,13.5
2023-08-11T03:15:36.609Z,13.5
2023-08-11T03:16:45.792Z,13.5
2023-08-11T03:17:54.967Z,13.5
2023-08-11T03:19:03.145Z,13.5
2023-08-11T03:20:12.305Z,13.4
2023-08-11T03:21:21.487Z,13.4
2023-08-11T03:22:30.662Z,13.4
2023-08-11T03:23:39.832Z,13.4
2023-08-11T03:24:49.004Z,13.4
2023-08-11T03:25:58.175Z,13.5
2023-08-11T03:27:07.346Z,13.4
2023-08-11T03:28:16.516Z,13.5
2023-08-11T03:29:25.691Z,13.5
2023-08-11T03:30:34.875Z,13.5
2023-08-11T03:31:44.114Z,13.6
2023-08-11T03:32:53.207Z,13.6
2023-08-11T03:34:01.395Z,13.6
2023-08-11T03:35:10.580Z,13.5
2023-08-11T03:36:19.746Z,13.6
2023-08-11T03:37:28.931Z,13.5
2023-08-11T03:38:38.091Z,13.6
2023-08-11T03:39:46.298Z,13.8
2023-08-11T03:40:54.479Z,13.8
2023-08-11T03:42:03.638Z,13.6
2023-08-11T03:43:11.835Z,13.6
2023-08-11T03:45:30.192Z,13.5
2023-08-11T03:46:39.349Z,13.5
2023-08-11T03:47:48.544Z,13.4
2023-08-11T03:48:57.709Z,13.5
2023-08-11T03:50:06.879Z,13.5
2023-08-11T03:51:16.140Z,13.5
2023-08-11T03:52:25.224Z,13.5
2023-08-11T03:53:34.390Z,13.5
2023-08-11T03:54:43.571Z,13.5
2023-08-11T03:55:52.734Z,13.5
2023-08-11T03:57:01.906Z,13.5
2023-08-11T03:58:10.103Z,13.5
2023-08-11T03:59:19.278Z,13.5
2023-08-11T04:01:37.629Z,13.5
2023-08-11T04:02:45.811Z,13.5
2023-08-11T04:03:54.003Z,13.5
2023-08-11T04:05:03.176Z,13.5
2023-08-11T04:06:12.348Z,13.5
2023-08-11T04:07:21.520Z,13.5
2023-08-11T04:08:30.690Z,13.5
2023-08-11T04:09:39.868Z,13.5
2023-08-11T04:10:49.033Z,13.5
2023-08-11T04:11:58.193Z,13.5
2023-08-11T04:13:07.377Z,13.5
2023-08-11T04:14:15.580Z,13.5
2023-08-11T04:15:23.830Z,13.5
2023-08-11T04:16:32.944Z,13.4
2023-08-11T04:17:42.117Z,13.4
2023-08-11T04:18:51.313Z,13.5
2023-08-11T04:20:00.461Z,13.4
2023-08-11T04:21:09.628Z,13.4
2023-08-11T04:22:18.804Z,13.5
2023-08-11T04:23:27.974Z,13.5
2023-08-11T04:25:46.326Z,13.4
2023-08-11T04:26:55.495Z,13.5
2023-08-11T04:28:04.648Z,13.6
2023-08-11T04:29:13.838Z,13.6
2023-08-11T04:30:22.024Z,13.6
2023-08-11T04:31:31.194Z,13.6
2023-08-11T04:32:40.392Z,13.7
2023-08-11T04:33:49.539Z,13.8
2023-08-11T04:34:58.714Z,13.8
2023-08-11T04:36:07.884Z,13.8
2023-08-11T04:37:17.043Z,13.9
2023-08-11T04:38:26.230Z,14.1
2023-08-11T04:39:35.604Z,14
2023-08-11T04:40:44.628Z,14
2023-08-11T04:41:53.773Z,13.9
2023-08-11T04:43:02.924Z,13.8
2023-08-11T04:44:12.097Z,13.8
2023-08-11T04:45:20.300Z,13.8
2023-08-11T04:46:29.449Z,13.8
2023-08-11T04:47:38.629Z,13.8
2023-08-11T04:48:47.798Z,13.9
2023-08-11T04:49:56.980Z,13.9
2023-08-11T04:51:06.139Z,13.9
2023-08-11T04:52:15.314Z,13.9
2023-08-11T04:53:24.496Z,13.9
2023-08-11T04:54:33.729Z,14
2023-08-11T04:55:42.852Z,14
2023-08-11T04:58:01.198Z,14.2
2023-08-11T04:59:10.358Z,14.2
2023-08-11T05:00:18.545Z,14.2
2023-08-11T05:01:27.719Z,14.3
2023-08-11T05:02:36.952Z,14.4
2023-08-11T05:03:46.056Z,14.5
2023-08-11T05:04:55.245Z,14.6
2023-08-11T05:06:04.412Z,14.7
2023-08-11T05:07:13.639Z,14.6
2023-08-11T05:08:22.758Z,14.6
2023-08-11T05:09:31.922Z,14.7
2023-08-11T05:10:41.105Z,14.7
2023-08-11T05:11:50.258Z,14.9
2023-08-11T05:14:08.608Z,15.3
2023-08-11T05:15:16.844Z,15.4
2023-08-11T05:16:25.968Z,15.4
2023-08-11T05:18:44.328Z,15.5
2023-08-11T05:19:52.534Z,15.5
2023-08-11T05:21:00.750Z,15.7
2023-08-11T05:22:09.874Z,15.7
2023-08-11T05:23:19.047Z,15.8
2023-08-11T05:24:28.228Z,15.8
2023-08-11T05:25:37.398Z,16
2023-08-11T05:26:45.597Z,15.8
2023-08-11T05:27:54.756Z,15.9
2023-08-11T05:29:03.941Z,15.9
2023-08-11T05:30:13.096Z,16.1
2023-08-11T05:31:21.311Z,16.4
2023-08-11T05:32:29.492Z,16.3
2023-08-11T05:33:38.659Z,16.4
2023-08-11T05:34:47.832Z,16.6
2023-08-11T05:35:57.017Z,16.7
2023-08-11T05:37:06.163Z,16.7
2023-08-11T05:38:15.364Z,16.8
2023-08-11T05:39:24.525Z,17
2023-08-11T05:40:33.699Z,17.1
2023-08-11T05:41:42.865Z,17.4
2023-08-11T05:42:52.040Z,17.8
2023-08-11T05:44:01.219Z,18.1
2023-08-11T05:45:10.385Z,18.2
2023-08-11T05:46:19.563Z,18.2
2023-08-11T05:47:27.773Z,18.5
2023-08-11T05:48:36.933Z,18.5
2023-08-11T05:49:46.088Z,18.3
2023-08-11T05:50:55.256Z,18.3
2023-08-11T05:52:04.433Z,18.5
2023-08-11T05:53:13.613Z,18.6
2023-08-11T05:54:21.816Z,18.8
2023-08-11T05:55:29.991Z,19.1
2023-08-11T05:56:39.162Z,19.2
2023-08-11T05:57:48.338Z,19.3
2023-08-11T05:58:57.514Z,19.3
2023-08-11T06:00:06.797Z,19.5
2023-08-11T06:01:15.937Z,19.6
2023-08-11T06:02:25.030Z,19.9
2023-08-11T06:03:34.200Z,20.2
2023-08-11T06:04:43.484Z,20.6
2023-08-11T06:05:52.549Z,20.7
2023-08-11T06:07:01.702Z,20.7
2023-08-11T06:08:10.889Z,20.7
2023-08-11T06:09:20.058Z,20.8
2023-08-11T06:10:28.244Z,20.9
2023-08-11T06:11:37.581Z,20.7
2023-08-11T06:12:46.588Z,20.9
2023-08-11T06:13:55.790Z,20.9
2023-08-11T06:15:04.948Z,21
2023-08-11T06:16:14.111Z,20.7
2023-08-11T06:17:22.311Z,20.1
2023-08-11T06:18:30.493Z,20.4
2023-08-11T06:19:39.677Z,20.6
2023-08-11T06:20:48.895Z,20.2
2023-08-11T06:21:58.194Z,20.5
2023-08-11T06:23:07.179Z,20.1
2023-08-11T06:24:16.389Z,19.6
2023-08-11T06:25:25.538Z,19.6
2023-08-11T06:26:34.713Z,19.9
2023-08-11T06:27:43.864Z,20.2
2023-08-11T06:28:53.067Z,20.2
2023-08-11T06:30:02.225Z,19.6
2023-08-11T06:31:11.421Z,19.4
2023-08-11T06:32:20.567Z,19.2
2023-08-11T06:33:28.768Z,19.7
2023-08-11T06:34:37.924Z,19.9
2023-08-11T06:35:47.197Z,20.1
2023-08-11T06:36:56.275Z,20.3
2023-08-11T06:38:05.437Z,20.3
2023-08-11T06:39:14.610Z,20.5
2023-08-11T06:40:23.782Z,20.8
2023-08-11T06:41:32.968Z,21.3
2023-08-11T06:42:42.135Z,20.4
2023-08-11T06:43:51.328Z,20.5
2023-08-11T06:45:00.474Z,20.8
2023-08-11T06:46:09.635Z,21.1
2023-08-11T06:47:18.831Z,21
2023-08-11T06:48:27.999Z,21.4
2023-08-11T06:49:36.240Z,20.8
2023-08-11T06:50:45.398Z,20.7
2023-08-11T06:51:54.540Z,20.4
2023-08-11T06:53:03.717Z,20.7
2023-08-11T06:54:12.868Z,21.3
2023-08-11T06:55:22.061Z,21.5
2023-08-11T06:56:31.223Z,21.6
2023-08-11T06:57:40.426Z,22.1
2023-08-11T06:58:49.566Z,22.3
2023-08-11T06:59:58.737Z,22.1
2023-08-11T07:01:07.955Z,22.3
2023-08-11T07:02:17.083Z,21.9
2023-08-11T07:03:26.254Z,21.9
2023-08-11T07:04:34.481Z,22.2
2023-08-11T07:05:43.615Z,22.1
2023-08-11T07:06:52.775Z,21.9
2023-08-11T07:08:01.959Z,21.9
2023-08-11T07:09:11.142Z,21.6
2023-08-11T07:10:20.302Z,21.7
2023-08-11T07:11:29.474Z,21.9
2023-08-11T07:12:38.665Z,21.9
2023-08-11T07:13:47.822Z,22.3
2023-08-11T07:14:56.985Z,22.5
2023-08-11T07:16:06.160Z,22.5
2023-08-11T07:17:15.327Z,22.5
2023-08-11T07:18:24.495Z,22.4
2023-08-11T07:19:32.814Z,22.3
2023-08-11T07:20:40.889Z,22.2
2023-08-11T07:21:50.049Z,22.7
2023-08-11T07:22:59.226Z,22.1
2023-08-11T07:24:08.413Z,21.6
2023-08-11T07:25:17.583Z,21.8
2023-08-11T07:26:26.750Z,22.2
2023-08-11T07:27:35.960Z,22.6
2023-08-11T07:28:45.104Z,22.7
2023-08-11T07:29:54.260Z,22.5
2023-08-11T07:31:03.432Z,22.6
2023-08-11T07:32:12.615Z,22.4
2023-08-11T07:33:21.793Z,21.7
2023-08-11T07:34:30.952Z,21.5
2023-08-11T07:35:39.145Z,21.3
2023-08-11T07:36:48.317Z,21.3
2023-08-11T07:37:57.483Z,21.5
2023-08-11T07:39:06.659Z,21.5
2023-08-11T07:40:15.871Z,21.7
2023-08-11T07:41:25.007Z,22.1
2023-08-11T07:42:34.211Z,22.4
2023-08-11T07:43:43.346Z,22.4
2023-08-11T07:44:52.523Z,22
2023-08-11T07:46:01.722Z,22.1
2023-08-11T07:47:10.865Z,22.3
2023-08-11T07:48:20.045Z,22.1
2023-08-11T07:49:29.257Z,21.8
2023-08-11T07:50:38.384Z,21.8
2023-08-11T07:51:46.610Z,22.1
2023-08-11T07:52:55.756Z,22
2023-08-11T07:54:04.907Z,22
2023-08-11T07:55:14.087Z,22.4
2023-08-11T07:56:23.255Z,22.2
2023-08-11T07:57:32.431Z,22.2
2023-08-11T07:58:41.615Z,22.7
2023-08-11T07:59:50.768Z,23.1
2023-08-11T08:00:59.948Z,23.4
2023-08-11T08:02:09.111Z,23.1
2023-08-11T08:03:18.298Z,22.8
2023-08-11T08:04:27.463Z,22.1
2023-08-11T08:05:36.634Z,22
2023-08-11T08:06:44.831Z,22
2023-08-11T08:07:54.014Z,22.2
2023-08-11T08:09:03.170Z,22.2
2023-08-11T08:10:12.346Z,22.1
2023-08-11T08:11:21.514Z,22.1
2023-08-11T08:12:30.692Z,22.3
2023-08-11T08:13:39.870Z,22.4
2023-08-11T08:14:49.042Z,22.8
2023-08-11T08:15:58.293Z,23.2
2023-08-11T08:17:07.371Z,23.1
2023-08-11T08:18:16.552Z,22.7
2023-08-11T08:19:25.714Z,22.5
2023-08-11T08:20:34.903Z,22.5
2023-08-11T08:21:43.091Z,22.5
2023-08-11T08:22:52.266Z,22.6
2023-08-11T08:24:01.439Z,22.7
2023-08-11T08:25:10.612Z,22.8
2023-08-11T08:26:19.776Z,23.1
2023-08-11T08:27:28.956Z,23.7
2023-08-11T08:28:38.122Z,24.2
2023-08-11T08:29:47.311Z,24.5
2023-08-11T08:30:56.474Z,24.3
2023-08-11T08:32:05.659Z,23.8
2023-08-11T08:33:14.832Z,23.5
2023-08-11T08:34:23.988Z,22.9
2023-08-11T08:35:33.159Z,22.8
2023-08-11T08:38:59.693Z,22.9
2023-08-11T08:40:08.875Z,22.9
2023-08-11T08:41:18.038Z,23
2023-08-11T08:42:27.213Z,23
2023-08-11T08:43:36.386Z,23.1
2023-08-11T08:44:45.554Z,23
2023-08-11T08:45:54.734Z,23.2
2023-08-11T08:47:03.915Z,23.6
2023-08-11T08:48:13.060Z,23.4
2023-08-11T08:49:22.252Z,23.6
2023-08-11T08:50:31.420Z,23.5
2023-08-11T08:51:39.603Z,23.6
2023-08-11T08:52:48.777Z,23.9
2023-08-11T08:53:57.952Z,24.1
2023-08-11T08:55:07.120Z,23.8
2023-08-11T08:56:16.313Z,23.7
2023-08-11T08:57:25.468Z,24.2
2023-08-11T08:58:34.633Z,24.5
2023-08-11T08:59:43.830Z,24.2
2023-08-11T09:00:52.982Z,24.4
2023-08-11T09:02:02.161Z,24.7
2023-08-11T09:03:11.319Z,24.7
2023-08-11T09:04:20.515Z,24.8
2023-08-11T09:05:29.670Z,25
2023-08-11T09:06:37.880Z,25.1
2023-08-11T09:07:46.084Z,24.7
2023-08-11T09:08:54.285Z,24
2023-08-11T09:10:03.439Z,23.9
2023-08-11T09:11:11.612Z,23.9
2023-08-11T09:12:20.794Z,24.3
2023-08-11T09:13:29.973Z,24.9
2023-08-11T09:14:39.249Z,25
2023-08-11T09:15:48.312Z,25.3
2023-08-11T09:16:57.492Z,25.7
2023-08-11T09:18:05.692Z,26
2023-08-11T09:19:14.852Z,26.4
2023-08-11T09:20:24.031Z,26.1
2023-08-11T09:21:33.198Z,26.3
2023-08-11T09:22:42.430Z,26.2
2023-08-11T09:23:51.551Z,25.7
2023-08-11T09:25:00.814Z,25.6
2023-08-11T09:26:09.916Z,25.8
2023-08-11T09:27:19.073Z,26.2
2023-08-11T09:28:28.268Z,25.9
2023-08-11T09:29:37.428Z,26.1
2023-08-11T09:30:46.590Z,25.9
2023-08-11T09:31:55.759Z,25.9
2023-08-11T09:33:03.977Z,25.9
2023-08-11T09:34:13.126Z,25.5
2023-08-11T09:35:22.295Z,25.7
2023-08-11T09:36:31.472Z,25.9
2023-08-11T09:37:40.662Z,25.9
2023-08-11T09:38:49.831Z,26
2023-08-11T09:39:58.991Z,26.2
2023-08-11T09:41:08.155Z,25.7
2023-08-11T09:42:17.368Z,26.1
2023-08-11T09:43:26.502Z,26.3
2023-08-11T09:44:35.673Z,26.6
2023-08-11T09:45:44.876Z,27
2023-08-11T09:46:54.067Z,26.7
2023-08-11T09:48:02.214Z,25.8
2023-08-11T09:49:11.408Z,25.6
2023-08-11T09:50:20.548Z,25.4
2023-08-11T09:51:29.725Z,25.1
2023-08-11T09:52:38.899Z,25
2023-08-11T09:53:48.074Z,25.6
2023-08-11T09:54:57.261Z,26.1
2023-08-11T09:56:06.422Z,26.5
2023-08-11T09:57:15.596Z,26.5
2023-08-11T09:58:24.763Z,26.4
2023-08-11T09:59:34.014Z,26.4
2023-08-11T10:00:43.142Z,25.8
2023-08-11T10:01:52.341Z,26
2023-08-11T10:03:01.628Z,26.7
2023-08-11T10:04:09.649Z,27.2
2023-08-11T10:05:17.911Z,27
2023-08-11T10:06:27.058Z,26.7
2023-08-11T10:07:36.181Z,27
2023-08-11T10:08:45.356Z,27
2023-08-11T10:09:54.723Z,26.3
2023-08-11T10:11:03.699Z,26.3
2023-08-11T10:12:13.014Z,26.3
2023-08-11T10:13:22.093Z,26.3
2023-08-11T10:14:31.221Z,26.8
2023-08-11T10:15:40.458Z,27
2023-08-11T10:16:49.648Z,26.5
2023-08-11T10:17:58.841Z,26.4
2023-08-11T10:19:07.930Z,26.3
2023-08-11T10:20:16.085Z,26.3
2023-08-11T10:21:25.305Z,26.7
2023-08-11T10:22:34.436Z,27.1
2023-08-11T10:23:43.610Z,27.1
2023-08-11T10:24:52.773Z,27.5
2023-08-11T10:26:01.949Z,27.4
2023-08-11T10:27:10.197Z,26.7
2023-08-11T10:28:19.427Z,26.3
2023-08-11T10:29:27.524Z,26.5
2023-08-11T10:30:35.707Z,26.8
2023-08-11T10:31:44.877Z,27.4
2023-08-11T10:32:54.087Z,27.6
2023-08-11T10:34:03.213Z,27.7
2023-08-11T10:36:21.566Z,27.4
2023-08-11T10:37:30.757Z,27.4
2023-08-11T10:38:39.992Z,27
2023-08-11T10:40:58.271Z,26.9
2023-08-11T10:42:07.419Z,26.9
2023-08-11T10:43:15.622Z,27.2
2023-08-11T10:44:23.812Z,27.4
2023-08-11T10:45:32.988Z,27.4
2023-08-11T10:46:42.163Z,27.4
2023-08-11T10:47:51.369Z,27.8
2023-08-11T10:49:00.589Z,27.9
2023-08-11T10:50:09.677Z,28.1
2023-08-11T10:51:18.843Z,28.5
2023-08-11T10:53:37.180Z,27.7
2023-08-11T10:54:46.352Z,27.8
2023-08-11T10:55:55.535Z,27.8
2023-08-11T10:57:04.710Z,28
2023-08-11T10:59:23.045Z,27.8
2023-08-11T11:00:31.279Z,27.9
2023-08-11T11:01:39.421Z,27.3
2023-08-11T11:02:48.604Z,27.4
2023-08-11T11:03:57.769Z,27.9
2023-08-11T11:05:06.958Z,28.3
2023-08-11T11:06:16.120Z,27.4
2023-08-11T11:07:25.297Z,27.4
2023-08-11T11:08:34.465Z,27.6
2023-08-11T11:09:43.717Z,27.9
2023-08-11T11:10:52.837Z,28
2023-08-11T11:12:01.103Z,28.1
2023-08-11T11:13:09.180Z,28.4
2023-08-11T11:14:18.369Z,28.5
2023-08-11T11:15:27.524Z,28.1
2023-08-11T11:16:36.704Z,27.9
2023-08-11T11:17:45.871Z,27.8
2023-08-11T11:18:55.054Z,27.8
2023-08-11T11:20:04.221Z,27.8
2023-08-11T11:21:13.389Z,28
2023-08-11T11:22:22.563Z,28.5
2023-08-11T11:23:30.816Z,28.6
2023-08-11T11:24:38.937Z,28.7
2023-08-11T11:25:48.120Z,28.3
2023-08-11T11:26:57.293Z,28
2023-08-11T11:28:06.459Z,28.6
2023-08-11T11:29:15.699Z,28.9
2023-08-11T11:30:24.826Z,28.9
2023-08-11T11:31:33.982Z,28.8
2023-08-11T11:32:43.146Z,28.3
2023-08-11T11:33:52.320Z,27.9
2023-08-11T11:35:01.492Z,27.7
2023-08-11T11:36:10.693Z,27.5
2023-08-11T11:37:19.850Z,27.7
2023-08-11T11:38:29.014Z,28.2
2023-08-11T11:39:37.235Z,28.3
2023-08-11T11:40:46.377Z,28.3
2023-08-11T11:41:55.547Z,28.4
2023-08-11T11:43:04.724Z,29
2023-08-11T11:45:23.052Z,29.3
2023-08-11T11:46:32.233Z,29.1
2023-08-11T11:47:41.416Z,28.8
2023-08-11T11:48:50.644Z,28.4
2023-08-11T11:51:08.940Z,28.5
2023-08-11T11:52:18.097Z,28.3
2023-08-11T11:53:27.288Z,28.1
2023-08-11T11:54:35.464Z,28.3
2023-08-11T11:55:44.642Z,28.4
2023-08-11T11:56:53.798Z,28.4
2023-08-11T11:58:02.980Z,28.7
2023-08-11T11:59:12.231Z,28.6
2023-08-11T12:00:21.324Z,28.8
2023-08-11T12:01:30.504Z,28.6
2023-08-11T12:02:39.675Z,28.5
2023-08-11T12:03:48.840Z,28.8
2023-08-11T12:04:58.003Z,28.8
2023-08-11T12:06:07.175Z,28.4
2023-08-11T12:07:16.358Z,28.4
2023-08-11T12:08:25.535Z,28.4
2023-08-11T12:09:33.837Z,28.2
2023-08-11T12:10:42.885Z,28.7
2023-08-11T12:11:52.070Z,28.7
2023-08-11T12:13:01.244Z,28.6
2023-08-11T12:14:09.496Z,28.6
2023-08-11T12:15:17.604Z,28.5
2023-08-11T12:16:26.786Z,28.8
2023-08-11T12:17:35.999Z,28.6
2023-08-11T12:18:45.134Z,28.7
2023-08-11T12:19:54.305Z,28.9
2023-08-11T12:21:03.486Z,29.3
2023-08-11T12:22:12.649Z,29.7
2023-08-11T12:23:21.829Z,29.5
2023-08-11T12:24:30.988Z,29.6
2023-08-11T12:25:40.173Z,29.4
2023-08-11T12:27:58.503Z,28.9
2023-08-11T12:29:07.739Z,29
2023-08-11T12:30:15.896Z,28.9
2023-08-11T12:31:25.060Z,28.9
2023-08-11T12:32:34.287Z,28.8
2023-08-11T12:33:43.388Z,29.1
2023-08-11T12:34:52.575Z,29
2023-08-11T12:36:01.744Z,29
2023-08-11T12:37:10.954Z,29.1
2023-08-11T12:38:19.160Z,28.8
2023-08-11T12:39:27.313Z,28.8
2023-08-11T12:40:36.470Z,28.8
2023-08-11T12:42:53.839Z,29.5
2023-08-11T12:44:03.002Z,29.4
2023-08-11T12:45:12.224Z,29.2
2023-08-11T12:46:21.347Z,28.7
2023-08-11T12:47:30.516Z,29
2023-08-11T12:48:39.750Z,29.1
2023-08-11T12:49:48.859Z,29
2023-08-11T12:50:58.173Z,29
2023-08-11T12:52:07.205Z,28.9
2023-08-11T12:53:16.383Z,29.1
2023-08-11T12:54:25.554Z,29.2
2023-08-11T12:55:34.728Z,29.3
2023-08-11T12:56:43.897Z,29.4
2023-08-11T12:57:52.078Z,29.3
2023-08-11T12:59:01.261Z,29.4
2023-08-11T13:00:10.439Z,29.5
2023-08-11T13:01:19.610Z,29.3
2023-08-11T13:02:28.798Z,29.7
2023-08-11T13:03:36.972Z,29.7
2023-08-11T13:04:45.161Z,29.5
2023-08-11T13:05:54.356Z,29.9
2023-08-11T13:07:03.504Z,30.1
2023-08-11T13:08:12.792Z,30.2
2023-08-11T13:09:21.850Z,30.4
2023-08-11T13:10:30.028Z,29.8
2023-08-11T13:11:39.219Z,29.2
2023-08-11T13:12:48.394Z,29
2023-08-11T13:13:57.566Z,29.1
2023-08-11T13:15:06.732Z,29
2023-08-11T13:16:15.894Z,29.2
2023-08-11T13:17:25.071Z,29.3
2023-08-11T13:19:43.428Z,29.6
2023-08-11T13:20:52.715Z,29.6
2023-08-11T13:22:01.770Z,29.5
2023-08-11T13:24:20.121Z,29.5
2023-08-11T13:25:28.326Z,29.4
2023-08-11T13:26:36.497Z,29.8
2023-08-11T13:27:45.666Z,30.2
2023-08-11T13:28:54.843Z,30.3
2023-08-11T13:30:04.061Z,30.4
2023-08-11T13:31:13.181Z,30.1
2023-08-11T13:32:22.368Z,29.9
2023-08-11T13:33:31.544Z,30.1
2023-08-11T13:34:40.768Z,29.8
2023-08-11T13:35:49.873Z,29.7
2023-08-11T13:36:58.081Z,29.7
2023-08-11T13:38:07.244Z,30.8
2023-08-11T13:39:15.550Z,30.8
2023-08-11T13:40:24.619Z,30.6
2023-08-11T13:41:33.921Z,30.4
2023-08-11T13:42:42.953Z,30.1
2023-08-11T13:43:52.138Z,29.5
2023-08-11T13:46:10.483Z,29.3
2023-08-11T13:47:19.650Z,29.2
2023-08-11T13:48:28.819Z,29.3
2023-08-11T13:49:37.996Z,29.3
2023-08-11T13:50:47.161Z,29.6
2023-08-11T13:51:56.327Z,29.7
2023-08-11T13:53:05.508Z,30
2023-08-11T13:54:13.730Z,30.1
2023-08-11T13:55:22.882Z,30.1
2023-08-11T13:56:32.039Z,30.1
2023-08-11T13:57:41.227Z,30.4
2023-08-11T13:58:50.437Z,30.6
2023-08-11T13:59:59.570Z,30.6
2023-08-11T14:01:08.731Z,30.3
2023-08-11T14:02:17.908Z,30.2
2023-08-11T14:03:27.091Z,29.7
2023-08-11T14:04:36.245Z,29.9
2023-08-11T14:05:45.431Z,30.2
2023-08-11T14:06:54.602Z,30.9
2023-08-11T14:08:03.774Z,31.2
2023-08-11T14:09:11.970Z,31.1
2023-08-11T14:10:21.128Z,31.3
2023-08-11T14:11:30.331Z,31.6
2023-08-11T14:12:39.515Z,31.5
2023-08-11T14:13:48.659Z,30
2023-08-11T14:14:57.819Z,29.4
2023-08-11T14:17:16.217Z,29.1
2023-08-11T14:18:25.339Z,29.4
2023-08-11T14:19:34.513Z,29.4
2023-08-11T14:20:43.772Z,29.7
2023-08-11T14:21:52.850Z,29.8
2023-08-11T14:23:02.044Z,29.5
2023-08-11T14:24:10.239Z,29.3
2023-08-11T14:25:19.408Z,29.2
2023-08-11T14:26:28.579Z,29.3
2023-08-11T14:28:46.909Z,29.8
2023-08-11T14:29:56.092Z,29.9
2023-08-11T14:31:04.516Z,29.7
2023-08-11T14:32:12.472Z,29.6
2023-08-11T14:33:21.714Z,29.8
2023-08-11T14:34:30.811Z,29.8
2023-08-11T14:36:49.159Z,29.7
2023-08-11T14:37:58.330Z,30.1
2023-08-11T14:39:07.575Z,29.8
2023-08-11T14:40:16.687Z,29.5
2023-08-11T14:41:25.857Z,29.3
2023-08-11T14:42:35.046Z,29.4
2023-08-11T14:43:44.215Z,29.4
2023-08-11T14:44:53.407Z,29.3
2023-08-11T14:46:02.572Z,29.3
2023-08-11T14:47:10.728Z,29.5
2023-08-11T14:48:19.920Z,29.4
2023-08-11T14:49:29.072Z,29.3
2023-08-11T14:50:38.252Z,29.4
2023-08-11T14:51:47.435Z,29.5
2023-08-11T14:52:56.620Z,29.5
2023-08-11T14:54:05.768Z,29.6
2023-08-11T14:55:14.937Z,29.5
2023-08-11T14:57:33.418Z,29.7
2023-08-11T14:58:42.460Z,29.5
2023-08-11T14:59:51.624Z,29.4
2023-08-11T15:01:00.807Z,29.4
2023-08-11T15:02:08.991Z,29.2
2023-08-11T15:03:18.168Z,29.1
2023-08-11T15:04:27.340Z,29.2
2023-08-11T15:05:36.514Z,29.2
2023-08-11T15:06:45.688Z,29.4
2023-08-11T15:07:54.856Z,29.3
2023-08-11T15:09:04.040Z,29.2
2023-08-11T15:10:12.231Z,29.1
2023-08-11T15:11:20.418Z,29.2
2023-08-11T15:12:28.607Z,29.3
2023-08-11T15:13:37.778Z,29.3
2023-08-11T15:14:46.955Z,29.3
2023-08-11T15:15:56.144Z,29.3
2023-08-11T15:17:05.285Z,29.6
2023-08-11T15:18:14.504Z,29.6
2023-08-11T15:19:23.648Z,29.5
2023-08-11T15:20:32.820Z,29.7
2023-08-11T15:21:42.016Z,30.3
2023-08-11T15:22:51.176Z,30.6
2023-08-11T15:24:00.337Z,30.5
2023-08-11T15:25:09.511Z,29.8
2023-08-11T15:26:18.676Z,29.3
2023-08-11T15:27:26.877Z,28.8
2023-08-11T15:28:36.143Z,28.8
2023-08-11T15:29:45.226Z,28.9
2023-08-11T15:30:54.382Z,28.9
2023-08-11T15:32:03.579Z,29.1
2023-08-11T15:33:12.737Z,29.2
2023-08-11T15:34:20.927Z,29.3
2023-08-11T15:35:29.117Z,29.1
2023-08-11T15:36:38.311Z,28.7
2023-08-11T15:37:47.495Z,28.8
2023-08-11T15:38:56.643Z,28.9
2023-08-11T15:40:05.811Z,29.1
2023-08-11T15:41:14.990Z,29
2023-08-11T15:42:24.160Z,29.1
2023-08-11T15:43:33.333Z,28.9
2023-08-11T15:45:51.797Z,28.6
2023-08-11T15:47:00.843Z,28.5
2023-08-11T15:48:10.021Z,28.4
2023-08-11T15:49:19.193Z,28.4
2023-08-11T15:50:27.397Z,28.3
2023-08-11T15:51:36.551Z,28.2
2023-08-11T15:52:45.727Z,28.2
2023-08-11T15:53:54.906Z,28.2
2023-08-11T15:56:13.242Z,28.3